This is the latest recevied weather packets stored in our database for station/object K1NOT-WX. If no packets are shown the sender has not sent any weather packets the latest 10 day(s).
| Time | Temp. | Humidity | Pressure | Rain* | Wind** | Luminosity | Snow |
|---|---|---|---|---|---|---|---|
| 1777900333 | 11.67° C | 79% | 1001 hPa | 0 mm | - | - | - |
| 1777899433 | 12.22° C | 78% | 1000.7 hPa | 0 mm | - | - | - |
| 1777898533 | 12.22° C | 78% | 1000.7 hPa | 0 mm | - | - | - |
| 1777897633 | 12.22° C | 76% | 1000.7 hPa | 0 mm | - | - | - |
| 1777896733 | 12.22° C | 77% | 1000.7 hPa | 0 mm | - | - | - |
| 1777895833 | 12.22° C | 77% | 1001 hPa | 0 mm | - | - | - |
| 1777894933 | 12.78° C | 74% | 1001 hPa | 0 mm | - | - | - |
| 1777894033 | 13.33° C | 71% | 1000.7 hPa | 0 mm | - | - | - |
| 1777893133 | 13.33° C | 69% | 1000.7 hPa | 0 mm | - | - | - |
| 1777892233 | 13.89° C | 69% | 1001 hPa | 0 mm | - | - | - |
| 1777891333 | 13.89° C | 70% | 1000.7 hPa | 0 mm | - | - | - |
| 1777890433 | 14.44° C | 67% | 1001 hPa | 0 mm | - | - | - |
| 1777889533 | 14.44° C | 66% | 1001 hPa | 0 mm | - | - | - |
| 1777888633 | 13.89° C | 70% | 1000.7 hPa | 0 mm | - | - | - |
| 1777887733 | 15° C | 65% | 1000.7 hPa | 0 mm | - | - | - |
| 1777886833 | 15.56° C | 62% | 1001 hPa | 0 mm | - | - | - |
| 1777885933 | 15.56° C | 63% | 1000.7 hPa | 0 mm | - | - | - |
| 1777885033 | 15.56° C | 61% | 1000.7 hPa | 0 mm | - | - | - |
| 1777884132 | 15.56° C | 63% | 1000.7 hPa | 0 mm | - | - | - |
| 1777883233 | 15.56° C | 60% | 1000.7 hPa | 0 mm | - | - | - |
| 1777882333 | 16.11° C | 59% | 1001 hPa | 0 mm | - | - | - |
| 1777881433 | 17.22° C | 55% | 1001 hPa | 0 mm | - | - | - |
| 1777880533 | 16.67° C | 57% | 1001 hPa | 0 mm | - | - | - |
| 1777879632 | 16.67° C | 56% | 1000.7 hPa | 0 mm | - | - | - |
| 1777878733 | 16.67° C | 55% | 1001 hPa | 0 mm | - | - | - |
* Rain latest hour (hover to see other rain measurements)
** Current wind speed in m/s (hover to see current wind gust speed)